Sand Key, FL current weather conditions

sailwx.info

Wind from 100 at 6 knots gusting 8

Air temperature 28.4° C

Last reported at 2014-Jul-23 06:50 UTC.
Time now 2014-Jul-23 08:08 UTC

Location: N 24°28' W 081°53'.
View on Google Maps.

See reports from other nearby stations

  
Tides and Currents Weather Stations Pressure Air Temp Water Temp Dewpoint Dewpoint Depression Visibility Wind Speed Wind Dir Waves Ship Positions
date/time (UTC)wind fromknots sea level pressurealtimeterstation pressurevisibilityair tempwater tempwave heightnotes
2014-Jul-23 06:50 100 6 gusting 8 28.4
2014-Jul-23 05:50 110 6 gusting 8 28.6
2014-Jul-23 04:50 100 5 gusting 6 28.8
2014-Jul-23 03:50 080 5 gusting 7 28.9
2014-Jul-23 02:50 100 6 gusting 8 29.0
2014-Jul-23 01:50 080 5 gusting 6 29.0
2014-Jul-23 00:50 070 5 gusting 7 29.0
2014-Jul-22 22:50 030 5 gusting 7 28.8
2014-Jul-22 21:50 360 4 gusting 6 28.6
2014-Jul-22 20:50 010 6 gusting 8 28.5
2014-Jul-22 19:50 350 2 gusting 3 28.5
2014-Jul-22 18:50 28.9
2014-Jul-22 17:50 070 3 gusting 4 27.5
2014-Jul-22 16:50 100 10 gusting 12 26.7
2014-Jul-22 15:50 110 4 gusting 5 25.8
2014-Jul-22 14:50 090 7 gusting 10 24.1
2014-Jul-22 13:50 330 18 gusting 20 27.2
2014-Jul-22 12:50 190 5 gusting 6 29.0
2014-Jul-22 11:50 170 10 gusting 12 28.6
2014-Jul-22 10:50 160 12 gusting 13 28.5
2014-Jul-22 09:50 160 10 gusting 12 28.5
2014-Jul-22 08:50 160 8 gusting 9 28.2
2014-Jul-22 07:50 130 9 gusting 11 28.6
2014-Jul-22 06:50 140 12 gusting 15 28.7
2014-Jul-22 05:50 120 10 gusting 12 29.0
2014-Jul-22 04:50 110 10 gusting 11 29.0
2014-Jul-22 03:50 120 7 gusting 9 29.2
2014-Jul-22 02:50 120 2 gusting 3 29.4
2014-Jul-22 01:50 220 3 gusting 4 29.4
2014-Jul-22 00:50 330 3 gusting 4 29.4
2014-Jul-21 22:50 330 3 gusting 4 29.0
2014-Jul-21 21:50 340 9 gusting 10 27.3
2014-Jul-21 20:50 260 3 gusting 4 29.2
2014-Jul-21 19:50 200 2 gusting 3 29.3
2014-Jul-21 18:50 230 3 gusting 5 29.2
2014-Jul-21 17:50 200 5 gusting 6 29.0
2014-Jul-21 16:50 190 4 gusting 5 29.0
2014-Jul-21 15:50 160 7 gusting 9 28.9
2014-Jul-21 14:50 160 8 gusting 9 28.8
2014-Jul-21 13:50 160 10 gusting 12 28.7
2014-Jul-21 12:50 140 10 gusting 12 29.1
2014-Jul-21 11:50 120 8 gusting 10 28.8
2014-Jul-21 10:50 120 10 gusting 12 28.6
2014-Jul-21 09:50 100 9 gusting 11 28.4
2014-Jul-21 08:50 100 8 gusting 9 28.1